KBLF/BLF METAR and TAF weather

Enter ICAO airport designator
Station Type Date Time Source
KBLF METAR 2022/06/25 23:07 UTC NOAA

KBLF 252307Z AUTO 25008KT 8SM FEW031 SCT038 BKN046 21/16 A3021 RMK AO2 LTG DSNT W TSE07 T02110156 $


Station Type Date Time Source
KBLF Decoded METAR 2022/06/25 23:07 UTC NOAA

BLUEFIELD MERCER COUNTY AIRPORT , WV, United States (KBLF) 37-18N 081-12W 873M
Jun 25, 2022 - 07:07 PM EDT / 2022.06.25 2307 UTC
Wind: from the WSW (250 degrees) at 9 MPH (8 KT):0
Visibility: 8 mile(s):0
Sky conditions: mostly cloudy
Weather: Lightning observed
Temperature: 70.0 F (21.1 C)
Dew Point: 60.1 F (15.6 C)
Relative Humidity: 70%
Pressure (altimeter): 30.21 in. Hg (1023 hPa)
ob: KBLF 252307Z AUTO 25008KT 8SM FEW031 SCT038 BKN046 21/16 A3021 RMK AO2 LTG DSNT W TSE07 T02110156
cycle: 23

Station Type Date Time Source
KBLF TAF 2022/06/25 18:22 UTC NOAA

TAF KBLF 251720Z 2518/2618 19004KT P6SM VCSH BKN060
FM251900 20004KT P6SM VCTS SCT035CB BKN060
FM252300 VRB04KT P6SM BKN100
FM261500 23005KT P6SM BKN050

Example: see airport list